Time;durP1;ratioP1;P1;durP2;ratioP2;P2;SDS_P1;SDS_P2;PMS_P1;PMS_P2;Temp;Humidity;BMP_temperature;BMP_pressure;BME280_temperature;BME280_humidity;BME280_pressure;Samples;Min_cycle;Max_cycle;Signal;HPM_P1;HPM_P2
2022/05/14 00:00:24;;;;;;;8.95;3.75;;;12.40;99.90;;;;;;4878928;29;20398;-88
2022/05/14 00:02:50;;;;;;;10.05;4.13;;;12.30;99.90;;;;;;4895344;29;20040;-88
2022/05/14 00:05:19;;;;;;;10.15;4.30;;;12.30;99.90;;;;;;4862756;29;20052;-88
2022/05/14 00:07:45;;;;;;;10.15;4.03;;;12.30;99.90;;;;;;4863041;29;20048;-87
2022/05/14 00:10:11;;;;;;;11.52;4.15;;;12.30;99.90;;;;;;4878734;29;20044;-88
2022/05/14 00:15:21;;;;;;;11.13;4.03;;;12.30;99.90;;;;;;4895369;29;20136;-89
2022/05/14 00:17:47;;;;;;;11.23;4.22;;;12.30;99.90;;;;;;4857776;29;20119;-88
2022/05/14 00:20:15;;;;;;;9.88;3.83;;;12.30;99.90;;;;;;4894766;29;20048;-87
2022/05/14 00:22:41;;;;;;;11.55;4.20;;;12.30;99.90;;;;;;4878474;29;20383;-87
2022/05/14 00:25:07;;;;;;;10.75;3.85;;;12.30;99.90;;;;;;4864732;29;20168;-88
2022/05/14 00:27:33;;;;;;;9.40;3.97;;;12.30;99.90;;;;;;4878012;29;20435;-88
2022/05/14 00:30:00;;;;;;;11.95;3.95;;;12.30;99.90;;;;;;4895072;29;20167;-88
2022/05/14 00:32:26;;;;;;;10.63;4.30;;;12.30;99.90;;;;;;4875344;29;20052;-88
2022/05/14 00:34:51;;;;;;;9.95;4.45;;;12.30;99.90;;;;;;4888878;29;20104;-87
2022/05/14 00:37:17;;;;;;;9.38;3.67;;;12.30;99.90;;;;;;4863009;29;20059;-88
2022/05/14 00:39:43;;;;;;;11.05;4.20;;;12.30;99.90;;;;;;4874901;29;20076;-88
2022/05/14 00:42:09;;;;;;;10.75;4.45;;;12.30;99.90;;;;;;4895112;29;20525;-87
2022/05/14 00:44:34;;;;;;;11.30;4.43;;;12.30;99.90;;;;;;4892903;29;20135;-88
2022/05/14 00:47:04;;;;;;;9.85;3.97;;;12.20;99.90;;;;;;4894284;29;20036;-88
2022/05/14 00:49:33;;;;;;;9.65;4.07;;;12.20;99.90;;;;;;4877664;29;20081;-87
2022/05/14 00:52:00;;;;;;;10.55;4.07;;;12.20;99.90;;;;;;4877259;29;20044;-87
2022/05/14 00:54:34;;;;;;;10.13;4.00;;;12.20;99.90;;;;;;4877907;29;20127;-88
2022/05/14 00:57:07;;;;;;;11.13;3.78;;;12.20;99.90;;;;;;4878229;29;20053;-89
2022/05/14 00:59:32;;;;;;;12.07;4.53;;;12.20;99.90;;;;;;4877294;29;20258;-88
2022/05/14 01:01:59;;;;;;;10.55;4.57;;;12.20;99.90;;;;;;4894487;29;20052;-88
2022/05/14 01:04:26;;;;;;;11.30;4.32;;;12.20;99.90;;;;;;4893881;29;20053;-88
2022/05/14 01:07:06;;;;;;;11.00;3.80;;;12.20;99.90;;;;;;4894362;29;20052;-87
2022/05/14 01:09:35;;;;;;;11.40;3.78;;;12.20;99.90;;;;;;4861429;29;20045;-88
2022/05/14 01:12:01;;;;;;;11.55;4.32;;;12.20;99.90;;;;;;4894000;29;20048;-87
2022/05/14 01:14:26;;;;;;;10.52;4.25;;;12.30;99.90;;;;;;4877286;29;20126;-87
2022/05/14 01:16:52;;;;;;;9.88;4.40;;;12.30;99.90;;;;;;4876883;29;20584;-87
2022/05/14 01:19:18;;;;;;;10.43;3.75;;;12.30;99.90;;;;;;4876771;29;20386;-88
2022/05/14 01:22:09;;;;;;;10.30;4.18;;;12.30;99.90;;;;;;4876718;29;20085;-89
2022/05/14 01:28:01;;;;;;;11.68;4.28;;;12.30;99.90;;;;;;4858806;29;20053;-88
2022/05/14 01:30:29;;;;;;;10.23;4.10;;;12.30;99.90;;;;;;4877417;29;20114;-87
2022/05/14 01:33:04;;;;;;;10.10;4.20;;;12.20;99.90;;;;;;4877128;29;20386;-88
2022/05/14 01:35:36;;;;;;;11.10;4.70;;;12.20;99.90;;;;;;4876545;29;20040;-87
2022/05/14 01:38:02;;;;;;;12.00;4.43;;;12.20;99.90;;;;;;4894537;29;20144;-89
2022/05/14 01:40:29;;;;;;;9.50;4.40;;;12.20;99.90;;;;;;4862056;29;20072;-87
2022/05/14 01:42:55;;;;;;;12.68;5.35;;;12.20;99.90;;;;;;4893430;29;20345;-88
2022/05/14 01:45:21;;;;;;;13.13;4.68;;;12.20;99.90;;;;;;4877345;29;20040;-86
2022/05/14 01:47:46;;;;;;;10.65;4.60;;;12.20;99.90;;;;;;4876167;29;20048;-88
2022/05/14 01:50:12;;;;;;;12.05;4.70;;;12.20;99.90;;;;;;4877231;29;20488;-87
2022/05/14 01:52:38;;;;;;;12.73;4.63;;;12.20;99.90;;;;;;4893634;29;20080;-87
2022/05/14 01:55:04;;;;;;;12.57;4.75;;;12.20;99.90;;;;;;4893239;29;20052;-87
2022/05/14 01:57:30;;;;;;;11.65;4.50;;;12.20;99.90;;;;;;4892803;29;20106;-88
2022/05/14 01:59:55;;;;;;;10.65;4.53;;;12.20;99.90;;;;;;4876990;29;20512;-88
2022/05/14 02:02:21;;;;;;;13.07;4.90;;;12.20;99.90;;;;;;4877109;29;20108;-88
2022/05/14 02:04:47;;;;;;;12.90;4.60;;;12.10;99.90;;;;;;4860783;29;20040;-88
2022/05/14 02:07:12;;;;;;;12.10;4.85;;;12.10;99.90;;;;;;4894163;29;20457;-87
2022/05/14 02:09:38;;;;;;;10.27;4.93;;;12.10;99.90;;;;;;4875838;29;20494;-88
2022/05/14 02:12:04;;;;;;;12.98;5.22;;;12.10;99.90;;;;;;4877286;29;20533;-88
2022/05/14 02:14:30;;;;;;;10.45;5.53;;;12.10;99.90;;;;;;4892952;29;20120;-88
2022/05/14 02:16:56;;;;;;;9.80;4.88;;;12.00;99.90;;;;;;4875784;29;20549;-87
2022/05/14 02:19:22;;;;;;;12.25;5.47;;;12.00;99.90;;;;;;4861545;29;20402;-88
2022/05/14 02:21:47;;;;;;;13.25;5.15;;;12.00;99.90;;;;;;4892975;29;20057;-89
2022/05/14 02:24:13;;;;;;;11.40;5.60;;;11.90;99.90;;;;;;4877637;29;20076;-88
2022/05/14 02:26:39;;;;;;;10.90;5.05;;;11.80;99.90;;;;;;4876407;29;20050;-88
2022/05/14 02:29:05;;;;;;;13.00;5.50;;;11.80;99.90;;;;;;4893244;29;20521;-87
2022/05/14 02:31:31;;;;;;;11.65;4.85;;;11.80;99.90;;;;;;4876296;29;20045;-88
2022/05/14 02:33:57;;;;;;;11.02;5.38;;;11.70;99.90;;;;;;4893474;29;20073;-87
2022/05/14 02:36:23;;;;;;;15.57;6.03;;;11.70;99.90;;;;;;4874066;29;20048;-87
2022/05/14 02:38:48;;;;;;;11.90;5.63;;;11.70;99.90;;;;;;4867907;29;20041;-89
2022/05/14 02:41:14;;;;;;;14.45;5.40;;;11.60;99.90;;;;;;4892489;29;20063;-87
2022/05/14 02:43:40;;;;;;;12.23;5.90;;;11.60;99.90;;;;;;4876584;29;20041;-88
2022/05/14 02:46:06;;;;;;;14.30;6.13;;;11.60;99.90;;;;;;4860940;29;20264;-88
2022/05/14 02:48:34;;;;;;;14.20;6.13;;;11.50;99.90;;;;;;4875302;29;20455;-88
2022/05/14 02:51:00;;;;;;;13.13;5.97;;;11.50;99.90;;;;;;4875585;29;20056;-88
2022/05/14 02:53:27;;;;;;;16.33;6.45;;;11.50;99.90;;;;;;4875486;29;20085;-88
2022/05/14 02:55:52;;;;;;;14.63;6.28;;;11.40;99.90;;;;;;4876569;29;20548;-89
2022/05/14 02:59:07;;;;;;;12.13;5.80;;;11.40;99.90;;;;;;4893477;29;20073;-88
2022/05/14 03:01:05;;;;;;;14.00;5.95;;;11.40;99.90;;;;;;4874996;29;20086;-89
2022/05/14 03:03:31;;;;;;;13.52;6.50;;;11.30;99.90;;;;;;4894254;29;20104;-89
2022/05/14 03:05:58;;;;;;;15.93;6.60;;;11.20;99.90;;;;;;4862566;29;20076;-89
2022/05/14 03:08:24;;;;;;;14.25;6.28;;;11.20;99.90;;;;;;4877766;29;20048;-89
2022/05/14 03:10:50;;;;;;;12.43;6.82;;;11.20;99.90;;;;;;4886387;29;20064;-89
2022/05/14 03:13:16;;;;;;;12.10;6.72;;;11.10;99.90;;;;;;4897019;29;20135;-89
2022/05/14 03:15:42;;;;;;;12.52;7.05;;;11.20;99.90;;;;;;4896735;29;20043;-89
2022/05/14 03:18:07;;;;;;;12.75;6.43;;;11.10;99.90;;;;;;4881370;29;20044;-88
2022/05/14 03:20:33;;;;;;;15.23;6.75;;;11.10;99.90;;;;;;4880020;29;20895;-89
2022/05/14 03:22:59;;;;;;;15.18;7.57;;;11.00;99.90;;;;;;4879137;29;20044;-89
2022/05/14 03:25:25;;;;;;;14.30;7.00;;;11.00;99.90;;;;;;4864261;29;20418;-89
2022/05/14 03:27:51;;;;;;;15.48;6.90;;;10.90;99.90;;;;;;4896689;29;20088;-90
2022/05/14 03:30:17;;;;;;;13.48;6.95;;;10.90;99.90;;;;;;4876275;29;20076;-90
2022/05/14 03:32:43;;;;;;;14.75;7.40;;;10.90;99.90;;;;;;4879560;29;20152;-89
2022/05/14 03:35:09;;;;;;;14.60;7.40;;;10.90;99.90;;;;;;4864550;29;20048;-89
2022/05/14 03:37:36;;;;;;;16.50;7.57;;;10.80;99.90;;;;;;4895850;29;20041;-88
2022/05/14 03:40:03;;;;;;;15.20;7.38;;;10.80;99.90;;;;;;4864569;29;20109;-89
2022/05/14 03:42:30;;;;;;;16.05;7.82;;;10.80;99.90;;;;;;4879359;29;20043;-89
2022/05/14 03:44:56;;;;;;;16.45;8.50;;;10.80;99.90;;;;;;4879490;29;20549;-89
2022/05/14 03:47:22;;;;;;;12.25;7.88;;;10.80;99.90;;;;;;4880849;29;20049;-90
2022/05/14 03:49:47;;;;;;;19.23;8.93;;;10.70;99.90;;;;;;4880005;29;20080;-90
2022/05/14 03:52:13;;;;;;;17.55;9.05;;;10.70;99.90;;;;;;4879321;29;20052;-89
2022/05/14 03:54:39;;;;;;;15.75;7.95;;;10.70;99.90;;;;;;4863168;29;20070;-89
2022/05/14 03:57:08;;;;;;;18.25;8.45;;;10.70;99.90;;;;;;4879772;29;20108;-89
2022/05/14 03:59:34;;;;;;;17.92;8.45;;;10.70;99.90;;;;;;4878710;29;20071;-89
2022/05/14 04:02:01;;;;;;;19.65;8.73;;;10.70;99.90;;;;;;4863679;29;20127;-89
2022/05/14 04:04:27;;;;;;;16.52;8.68;;;10.70;99.90;;;;;;4863636;29;20134;-89
2022/05/14 04:06:53;;;;;;;16.50;9.43;;;10.70;99.90;;;;;;4863451;29;20060;-90
2022/05/14 04:09:19;;;;;;;15.23;8.95;;;10.70;99.90;;;;;;4896891;29;20052;-90
2022/05/14 04:11:45;;;;;;;19.20;9.50;;;10.70;99.90;;;;;;4895883;29;20096;-90
2022/05/14 04:14:11;;;;;;;15.70;8.95;;;10.70;99.90;;;;;;4879854;29;20104;-89
2022/05/14 04:16:38;;;;;;;17.20;8.82;;;10.70;99.90;;;;;;4878462;29;20127;-89
2022/05/14 04:19:04;;;;;;;16.30;8.95;;;10.70;99.90;;;;;;4879754;29;20505;-90
2022/05/14 04:21:32;;;;;;;18.65;9.77;;;10.80;99.90;;;;;;4879112;29;20462;-90
2022/05/14 04:23:59;;;;;;;18.35;9.48;;;10.80;99.90;;;;;;4879250;29;20044;-90
2022/05/14 04:26:25;;;;;;;17.05;10.10;;;10.80;99.90;;;;;;4878924;29;20059;-90
2022/05/14 04:28:51;;;;;;;18.63;10.18;;;10.80;99.90;;;;;;4863435;29;20463;-90
2022/05/14 04:31:18;;;;;;;19.60;9.70;;;10.90;99.90;;;;;;4863603;29;20064;-89
2022/05/14 04:33:43;;;;;;;20.85;10.73;;;10.90;99.90;;;;;;4878051;29;20060;-89
2022/05/14 04:36:09;;;;;;;17.23;9.82;;;11.00;99.90;;;;;;4879167;29;20048;-89
2022/05/14 04:38:35;;;;;;;22.15;11.32;;;11.00;99.90;;;;;;4862662;29;20041;-89
2022/05/14 04:41:01;;;;;;;19.27;9.98;;;11.10;99.90;;;;;;4862888;29;20036;-88
2022/05/14 04:43:26;;;;;;;17.20;9.73;;;11.10;99.90;;;;;;4878719;29;20573;-89
2022/05/14 04:45:52;;;;;;;17.42;9.50;;;11.10;99.90;;;;;;4894886;29;20051;-89
2022/05/14 04:48:18;;;;;;;19.10;10.05;;;11.10;99.90;;;;;;4862633;29;20433;-90
2022/05/14 04:50:45;;;;;;;19.15;10.05;;;11.20;99.90;;;;;;4893969;29;20037;-90
2022/05/14 04:53:12;;;;;;;19.70;9.90;;;11.20;99.90;;;;;;4877301;29;20058;-90
2022/05/14 04:55:38;;;;;;;20.15;9.82;;;11.30;99.90;;;;;;4894251;29;20037;-89
2022/05/14 04:58:06;;;;;;;20.85;10.93;;;11.30;99.90;;;;;;4879093;29;20549;-89
2022/05/14 05:00:32;;;;;;;17.55;9.77;;;11.40;99.90;;;;;;4878182;29;20063;-88
2022/05/14 05:05:51;;;;;;;20.77;10.55;;;11.50;99.90;;;;;;4876904;29;20522;-88
2022/05/14 05:08:17;;;;;;;19.77;10.13;;;11.50;99.90;;;;;;4892714;29;20142;-91
2022/05/14 05:10:43;;;;;;;18.60;10.20;;;11.60;99.90;;;;;;4877214;29;20512;-91
2022/05/14 05:13:17;;;;;;;18.55;11.20;;;11.70;99.90;;;;;;4876934;29;20044;-91
2022/05/14 05:15:43;;;;;;;18.35;10.57;;;11.70;99.90;;;;;;4860942;29;20036;-90
2022/05/14 05:18:10;;;;;;;23.98;11.32;;;11.80;99.90;;;;;;4877987;29;20048;-89
2022/05/14 05:20:37;;;;;;;21.15;11.63;;;11.90;99.90;;;;;;4892729;29;20060;-87
2022/05/14 05:23:04;;;;;;;20.05;10.43;;;11.90;99.90;;;;;;4878151;29;20100;-87
2022/05/14 05:25:30;;;;;;;20.25;10.23;;;12.00;99.90;;;;;;4877281;29;20112;-89
2022/05/14 05:27:55;;;;;;;22.40;11.32;;;12.10;99.90;;;;;;4877589;29;20493;-89
2022/05/14 05:30:21;;;;;;;20.05;10.90;;;12.10;99.90;;;;;;4877309;29;20116;-88
2022/05/14 05:32:47;;;;;;;24.67;11.45;;;12.20;99.90;;;;;;4861475;29;20051;-89
2022/05/14 05:35:13;;;;;;;21.48;11.30;;;12.30;99.90;;;;;;4878218;29;20458;-89
2022/05/14 05:37:39;;;;;;;20.90;11.85;;;12.40;99.90;;;;;;4875744;29;20061;-89
2022/05/14 05:40:05;;;;;;;20.65;11.85;;;12.50;99.90;;;;;;4860426;29;20053;-89
2022/05/14 05:42:32;;;;;;;19.25;11.25;;;12.60;99.90;;;;;;4893991;29;20040;-89
2022/05/14 05:44:58;;;;;;;23.08;10.68;;;12.70;99.90;;;;;;4877888;29;20055;-88
2022/05/14 05:47:23;;;;;;;21.90;11.30;;;12.70;99.90;;;;;;4877257;29;20052;-89
2022/05/14 05:49:49;;;;;;;25.17;11.35;;;12.90;99.90;;;;;;4860504;29;20409;-89
2022/05/14 05:52:14;;;;;;;23.10;11.05;;;13.00;99.90;;;;;;4877526;29;20083;-89
2022/05/14 05:57:39;;;;;;;21.77;11.18;;;13.10;99.90;;;;;;4889259;29;20092;-87
2022/05/14 06:00:18;;;;;;;21.75;10.77;;;13.20;99.90;;;;;;4894639;29;20049;-94
2022/05/14 06:02:44;;;;;;;19.92;11.07;;;13.30;99.90;;;;;;4863041;29;20080;-91
2022/05/14 06:05:10;;;;;;;24.27;11.27;;;13.40;99.90;;;;;;4894464;29;20447;-89
2022/05/14 06:07:37;;;;;;;20.52;10.88;;;13.50;99.90;;;;;;4893430;29;20039;-91
2022/05/14 06:10:05;;;;;;;22.60;11.88;;;13.60;99.90;;;;;;4876873;29;20414;-92
2022/05/14 06:12:31;;;;;;;24.52;11.93;;;13.60;99.90;;;;;;4843695;29;20414;-89
2022/05/14 06:14:57;;;;;;;19.90;10.77;;;13.70;99.90;;;;;;4862802;29;20048;-94
2022/05/14 06:17:23;;;;;;;22.15;10.27;;;13.80;99.90;;;;;;4870373;29;20032;-95
2022/05/14 06:19:48;;;;;;;24.60;11.38;;;13.90;99.90;;;;;;4865180;29;20409;-92
2022/05/14 06:22:15;;;;;;;22.67;10.02;;;14.00;99.90;;;;;;4857774;29;20417;-91
2022/05/14 06:24:40;;;;;;;21.70;10.57;;;14.00;99.90;;;;;;4858836;29;20084;-92
2022/05/14 06:27:06;;;;;;;23.70;11.13;;;14.20;99.90;;;;;;4842375;29;20145;-89
2022/05/14 06:29:32;;;;;;;21.83;10.77;;;14.30;99.90;;;;;;4859659;29;20047;-88
2022/05/14 06:31:58;;;;;;;19.65;10.18;;;14.40;99.90;;;;;;4859212;29;20097;-90
2022/05/14 06:34:25;;;;;;;18.90;9.60;;;14.50;99.90;;;;;;4852178;29;20056;-88
2022/05/14 06:36:51;;;;;;;19.88;9.20;;;14.60;99.90;;;;;;4850542;29;20132;-88
2022/05/14 06:39:16;;;;;;;21.17;9.23;;;14.70;99.90;;;;;;4849913;29;20128;-89
2022/05/14 06:41:42;;;;;;;22.42;9.45;;;14.80;99.90;;;;;;4837939;29;20079;-88
2022/05/14 06:44:08;;;;;;;19.48;7.85;;;14.90;99.90;;;;;;4858700;29;20129;-88
2022/05/14 06:46:35;;;;;;;19.45;7.85;;;15.00;99.90;;;;;;4831111;29;20450;-88
2022/05/14 06:49:01;;;;;;;19.83;8.07;;;15.10;99.90;;;;;;4876626;29;20045;-90
2022/05/14 06:51:29;;;;;;;18.02;7.13;;;15.10;99.90;;;;;;4878438;29;20048;-90
2022/05/14 06:53:59;;;;;;;19.92;7.78;;;15.00;99.90;;;;;;4872511;29;20110;-90
2022/05/14 06:56:26;;;;;;;18.60;7.93;;;14.90;99.90;;;;;;4841023;29;20455;-89
2022/05/14 06:58:52;;;;;;;21.65;7.97;;;14.90;99.90;;;;;;4874864;29;20029;-89
2022/05/14 07:01:19;;;;;;;18.77;8.20;;;15.00;99.90;;;;;;4860451;29;20052;-88
2022/05/14 07:06:39;;;;;;;20.98;7.57;;;15.20;99.90;;;;;;4877697;29;20131;-88
2022/05/14 07:09:22;;;;;;;18.20;6.95;;;15.40;99.90;;;;;;4861806;29;20049;-88
2022/05/14 07:11:50;;;;;;;19.95;7.75;;;15.60;99.90;;;;;;4847794;29;20041;-88
2022/05/14 07:14:19;;;;;;;19.88;6.72;;;15.70;99.90;;;;;;4861632;29;20049;-86
2022/05/14 07:16:46;;;;;;;19.05;7.60;;;15.70;99.90;;;;;;4860866;29;20135;-88
2022/05/14 07:19:12;;;;;;;17.23;7.03;;;15.80;99.90;;;;;;4846586;29;20371;-89
2022/05/14 07:21:41;;;;;;;19.67;6.72;;;15.80;99.90;;;;;;4890018;29;20071;-88
2022/05/14 07:24:09;;;;;;;19.20;6.97;;;15.90;99.90;;;;;;4896811;29;20184;-88
2022/05/14 07:26:36;;;;;;;18.50;6.70;;;15.90;99.90;;;;;;4896252;29;20064;-86
2022/05/14 07:29:06;;;;;;;18.42;6.28;;;16.10;99.90;;;;;;4896894;29;20041;-88
2022/05/14 07:31:34;;;;;;;20.65;6.00;;;16.20;99.90;;;;;;4864590;29;20131;-89
2022/05/14 07:34:00;;;;;;;18.95;6.80;;;16.20;99.90;;;;;;4862042;29;20462;-90
2022/05/14 07:36:27;;;;;;;17.17;6.60;;;16.20;99.90;;;;;;4855817;29;20079;-90
2022/05/14 07:39:01;;;;;;;19.85;6.95;;;16.30;99.90;;;;;;4879941;29;20162;-89
2022/05/14 07:41:29;;;;;;;18.55;6.35;;;16.40;99.90;;;;;;4879664;29;20475;-89
2022/05/14 07:43:58;;;;;;;17.27;6.25;;;16.30;99.90;;;;;;4896237;29;20036;-88
2022/05/14 07:46:28;;;;;;;18.60;7.13;;;16.40;99.90;;;;;;4864066;29;20076;-89
2022/05/14 07:48:56;;;;;;;19.20;5.83;;;16.60;99.90;;;;;;4893924;29;20052;-87
2022/05/14 07:51:21;;;;;;;17.50;5.80;;;16.50;99.90;;;;;;4895589;29;20052;-89
2022/05/14 07:53:47;;;;;;;18.80;5.53;;;16.60;99.90;;;;;;4895045;29;20096;-88
2022/05/14 07:56:13;;;;;;;16.77;5.35;;;16.50;99.90;;;;;;4888158;29;20558;-88
2022/05/14 07:58:42;;;;;;;19.08;5.70;;;16.50;99.90;;;;;;4894697;29;20045;-87
2022/05/14 08:01:07;;;;;;;17.38;5.18;;;16.60;99.90;;;;;;4878783;29;20148;-87
2022/05/14 08:03:33;;;;;;;19.52;5.60;;;16.60;99.90;;;;;;4863423;29;20615;-87
2022/05/14 08:05:59;;;;;;;16.42;5.00;;;16.60;99.90;;;;;;4878632;29;20478;-89
2022/05/14 08:08:26;;;;;;;15.50;4.80;;;16.60;99.90;;;;;;4879130;29;20051;-87
2022/05/14 08:10:52;;;;;;;18.60;6.13;;;16.70;99.90;;;;;;4894739;29;20485;-87
2022/05/14 08:13:19;;;;;;;20.77;6.03;;;16.80;99.90;;;;;;4862836;29;20096;-87
2022/05/14 08:15:46;;;;;;;17.75;5.22;;;16.90;99.90;;;;;;4895157;29;20076;-87
2022/05/14 08:18:13;;;;;;;16.58;5.43;;;16.90;99.90;;;;;;4879226;29;20049;-89
2022/05/14 08:20:40;;;;;;;18.40;5.90;;;16.90;99.90;;;;;;4894825;29;20056;-88
2022/05/14 08:25:52;;;;;;;18.30;5.45;;;16.90;99.90;;;;;;4865805;29;20505;-88
2022/05/14 08:28:18;;;;;;;18.00;6.15;;;17.00;99.90;;;;;;4878474;29;20084;-89
2022/05/14 08:30:43;;;;;;;20.20;6.75;;;17.00;99.90;;;;;;4847476;29;20077;-91
2022/05/14 08:33:09;;;;;;;18.95;7.03;;;17.00;99.90;;;;;;4878522;29;20041;-90
2022/05/14 08:35:35;;;;;;;20.65;6.57;;;16.90;99.90;;;;;;4878356;29;20096;-87
2022/05/14 08:38:02;;;;;;;15.38;5.40;;;17.00;99.90;;;;;;4896020;29;20080;-85
2022/05/14 08:40:33;;;;;;;17.40;6.03;;;17.10;99.90;;;;;;4878236;29;20067;-89
2022/05/14 08:43:08;;;;;;;16.98;5.72;;;17.10;99.90;;;;;;4878444;29;20087;-89
2022/05/14 08:45:36;;;;;;;16.40;5.30;;;17.20;99.90;;;;;;4877932;29;20048;-88
2022/05/14 08:48:16;;;;;;;17.63;5.55;;;17.40;99.90;;;;;;4878179;29;20080;-88
2022/05/14 08:50:44;;;;;;;16.30;6.43;;;17.60;99.90;;;;;;4896530;29;20048;-87
2022/05/14 08:53:13;;;;;;;17.85;5.30;;;17.70;99.90;;;;;;4863816;29;20124;-89
2022/05/14 08:55:42;;;;;;;15.68;5.30;;;17.80;99.90;;;;;;4877649;29;20085;-86
2022/05/14 08:58:18;;;;;;;18.35;5.47;;;18.00;99.90;;;;;;4878543;29;20135;-88
2022/05/14 09:00:44;;;;;;;20.20;6.15;;;18.10;99.90;;;;;;4894618;29;20581;-88
2022/05/14 09:03:09;;;;;;;20.27;5.40;;;18.20;99.90;;;;;;4877940;29;20033;-88
2022/05/14 09:05:37;;;;;;;17.95;5.03;;;18.30;99.90;;;;;;4893891;29;20044;-89
2022/05/14 09:08:03;;;;;;;16.05;5.05;;;18.20;99.90;;;;;;4894972;29;20335;-89
2022/05/14 09:10:30;;;;;;;17.65;5.15;;;18.20;99.90;;;;;;4878222;29;20184;-89
2022/05/14 09:12:58;;;;;;;15.98;5.13;;;18.20;99.90;;;;;;4877436;29;20056;-88
2022/05/14 09:15:27;;;;;;;18.50;5.30;;;18.10;99.90;;;;;;4893781;29;20049;-92
2022/05/14 09:18:06;;;;;;;15.63;5.28;;;18.00;99.90;;;;;;4877243;29;20084;-87
2022/05/14 09:20:41;;;;;;;18.48;5.40;;;18.00;99.90;;;;;;4893680;29;20093;-89
2022/05/14 09:23:06;;;;;;;16.30;5.38;;;18.00;99.90;;;;;;4878529;29;20088;-88
2022/05/14 09:25:38;;;;;;;16.70;5.50;;;18.00;99.90;;;;;;4846069;29;20081;-89
2022/05/14 09:28:11;;;;;;;16.27;5.18;;;18.00;99.90;;;;;;4895887;29;20044;-89
2022/05/14 09:30:40;;;;;;;18.25;5.50;;;18.00;99.90;;;;;;4861774;29;20047;-88
2022/05/14 09:33:09;;;;;;;19.27;5.72;;;18.10;99.90;;;;;;4894635;29;20116;-89
2022/05/14 09:35:35;;;;;;;19.75;6.15;;;18.00;99.90;;;;;;4877090;29;20401;-89
2022/05/14 09:38:18;;;;;;;17.83;5.50;;;18.00;99.90;;;;;;4862024;29;20048;-88
2022/05/14 09:40:44;;;;;;;19.20;6.15;;;17.90;99.90;;;;;;4876729;29;20116;-88
2022/05/14 09:43:16;;;;;;;19.70;5.95;;;17.90;99.90;;;;;;4894946;29;20080;-87
2022/05/14 09:46:00;;;;;;;16.98;6.15;;;17.80;99.90;;;;;;4876566;29;20406;-88
2022/05/14 09:48:35;;;;;;;17.27;5.32;;;17.90;99.90;;;;;;4894375;29;20080;-88
2022/05/14 09:51:04;;;;;;;17.60;5.95;;;18.00;99.90;;;;;;4877805;29;20036;-87
2022/05/14 09:53:33;;;;;;;17.95;6.20;;;18.20;99.90;;;;;;4894657;29;20044;-86
2022/05/14 09:56:28;;;;;;;16.63;4.90;;;18.30;99.90;;;;;;4878034;29;20135;-90
2022/05/14 09:59:19;;;;;;;18.33;5.15;;;18.40;99.90;;;;;;4878924;29;20048;-86
2022/05/14 10:01:58;;;;;;;;;;;18.40;99.90;;;;;;4859151;29;20041;-87
2022/05/14 10:04:31;;;;;;;16.40;5.38;;;18.40;99.90;;;;;;4866281;29;19927;-89
2022/05/14 10:07:25;;;;;;;16.70;4.57;;;18.30;99.90;;;;;;4894108;29;20052;-89
2022/05/14 10:10:27;;;;;;;19.50;5.93;;;18.40;99.90;;;;;;4877218;29;20045;-89
2022/05/14 10:13:10;;;;;;;15.93;5.20;;;18.30;99.90;;;;;;4892204;29;20057;-89
2022/05/14 10:15:45;;;;;;;16.75;5.32;;;18.30;99.90;;;;;;4892702;29;20049;-88
2022/05/14 10:18:44;;;;;;;17.20;5.00;;;18.30;99.90;;;;;;4879913;29;20399;-88
2022/05/14 10:21:33;;;;;;;12.98;4.50;;;18.40;99.90;;;;;;4881284;29;20057;-87
2022/05/14 10:27:27;;;;;;;17.02;4.90;;;18.60;99.90;;;;;;4881034;29;20427;-88
2022/05/14 10:30:07;;;;;;;17.63;5.03;;;18.60;99.90;;;;;;4896521;29;20490;-89
2022/05/14 10:32:34;;;;;;;14.43;4.55;;;18.80;99.90;;;;;;4877244;29;20060;-88
2022/05/14 10:35:24;;;;;;;15.30;4.88;;;18.80;99.90;;;;;;4881202;29;20359;-89
2022/05/14 10:38:06;;;;;;;13.48;4.25;;;18.70;99.90;;;;;;4895660;29;20052;-86
2022/05/14 10:40:49;;;;;;;13.48;4.40;;;18.70;99.90;;;;;;4875732;29;20064;-84
2022/05/14 10:43:48;;;;;;;16.48;4.57;;;18.60;99.90;;;;;;4880512;29;20048;-86
2022/05/14 10:46:20;;;;;;;17.48;5.03;;;18.70;99.90;;;;;;4870274;29;20758;-86
2022/05/14 10:48:57;;;;;;;16.70;5.03;;;18.90;99.90;;;;;;4880100;29;20048;-87
2022/05/14 10:51:26;;;;;;;16.63;5.18;;;19.10;99.90;;;;;;4897160;29;20052;-88
2022/05/14 10:53:53;;;;;;;15.05;4.72;;;19.30;99.90;;;;;;4864417;29;20084;-88
2022/05/14 10:56:26;;;;;;;15.60;4.80;;;19.50;99.90;;;;;;4880376;29;20108;-88
2022/05/14 10:58:51;;;;;;;18.75;5.20;;;19.60;99.90;;;;;;4848730;29;20044;-88
2022/05/14 11:01:42;;;;;;;13.98;4.63;;;19.80;99.90;;;;;;4864748;29;20075;-88
2022/05/14 11:04:24;;;;;;;14.68;5.55;;;20.00;99.90;;;;;;4897279;29;20060;-87
2022/05/14 11:06:49;;;;;;;18.08;5.82;;;20.00;99.90;;;;;;4896544;29;20037;-87
2022/05/14 11:09:22;;;;;;;17.60;4.68;;;20.10;99.90;;;;;;4896832;29;20052;-88
2022/05/14 11:11:55;;;;;;;15.02;4.95;;;20.20;99.90;;;;;;4879916;29;20440;-86
2022/05/14 11:14:21;;;;;;;15.98;4.57;;;20.20;99.90;;;;;;4896982;29;20048;-86
2022/05/14 11:16:49;;;;;;;15.38;5.28;;;20.10;99.90;;;;;;4864276;29;20037;-88
2022/05/14 11:19:28;;;;;;;14.77;5.35;;;20.10;99.90;;;;;;4880025;29;20529;-89
2022/05/14 11:21:55;;;;;;;14.50;4.72;;;20.10;99.70;;;;;;4879372;29;20395;-89
2022/05/14 11:24:35;;;;;;;13.38;4.20;;;20.00;99.90;;;;;;4895149;29;20052;-88
2022/05/14 11:27:01;;;;;;;15.73;4.63;;;20.00;99.90;;;;;;4846285;29;20149;-90
2022/05/14 11:29:29;;;;;;;15.80;4.80;;;19.90;99.90;;;;;;4861133;29;20143;-89
2022/05/14 11:32:14;;;;;;;15.68;4.85;;;19.70;99.90;;;;;;4862643;29;20135;-88
2022/05/14 11:34:51;;;;;;;14.98;5.25;;;19.70;99.90;;;;;;4895922;29;20040;-88
2022/05/14 11:37:31;;;;;;;14.68;4.72;;;19.50;99.70;;;;;;4879604;29;20359;-88
2022/05/14 11:40:30;;;;;;;13.65;4.75;;;19.40;99.90;;;;;;4879328;29;20482;-90
2022/05/14 11:43:10;;;;;;;16.42;4.65;;;19.40;99.80;;;;;;4894175;29;20303;-85
2022/05/14 11:45:38;;;;;;;16.73;4.97;;;19.30;99.70;;;;;;4878707;29;20053;-88
2022/05/14 11:48:06;;;;;;;14.57;4.68;;;19.20;99.90;;;;;;4849355;29;20075;-89
2022/05/14 11:50:44;;;;;;;18.90;5.05;;;19.20;99.80;;;;;;4896040;29;20045;-88
2022/05/14 11:53:19;;;;;;;17.20;5.40;;;19.20;99.70;;;;;;4864077;29;20565;-88
2022/05/14 11:55:52;;;;;;;15.48;4.40;;;19.30;99.90;;;;;;4878926;29;20096;-88
2022/05/14 11:58:35;;;;;;;15.57;4.88;;;19.40;99.80;;;;;;4879434;29;20048;-87
2022/05/14 12:01:06;;;;;;;18.90;4.47;;;19.40;99.90;;;;;;4880103;29;20048;-88
2022/05/14 12:03:37;;;;;;;;;;;19.40;99.90;;;;;;4895168;29;20095;-87
2022/05/14 12:06:28;;;;;;;16.92;4.95;;;19.40;99.90;;;;;;4896640;29;19924;-90
2022/05/14 12:09:12;;;;;;;;;;;19.60;99.80;;;;;;4863802;29;20135;-88
2022/05/14 12:11:41;;;;;;;16.77;4.70;;;19.60;99.60;;;;;;4863301;29;19923;-89
2022/05/14 12:14:15;;;;;;;17.27;4.50;;;19.70;99.90;;;;;;4897373;29;20076;-88
2022/05/14 12:16:56;;;;;;;16.35;4.65;;;19.70;99.40;;;;;;4880454;29;20067;-89
2022/05/14 12:19:25;;;;;;;14.43;4.80;;;19.70;98.90;;;;;;4863559;29;20048;-89
2022/05/14 12:21:56;;;;;;;17.80;4.78;;;19.60;99.20;;;;;;4863002;29;20064;-88
2022/05/14 12:24:29;;;;;;;17.92;5.22;;;19.50;99.50;;;;;;4878662;29;20064;-88
2022/05/14 12:26:55;;;;;;;14.75;4.65;;;19.50;98.50;;;;;;4877969;29;20044;-87
2022/05/14 12:29:30;;;;;;;15.20;5.00;;;19.40;98.90;;;;;;4878894;29;20135;-89
2022/05/14 12:34:56;;;;;;;15.95;4.82;;;19.50;98.80;;;;;;4893657;29;20061;-89
2022/05/14 12:37:21;;;;;;;15.77;4.57;;;19.60;98.90;;;;;;4878922;29;20080;-88
2022/05/14 12:39:50;;;;;;;16.48;5.10;;;19.70;98.70;;;;;;4894523;29;20101;-87
2022/05/14 12:42:21;;;;;;;15.85;4.80;;;19.80;98.70;;;;;;4894078;29;20092;-89
2022/05/14 12:44:48;;;;;;;15.07;4.95;;;19.80;98.60;;;;;;4862623;29;20040;-87
2022/05/14 12:47:25;;;;;;;17.23;5.55;;;20.00;98.60;;;;;;4895428;29;20148;-89
2022/05/14 12:49:52;;;;;;;15.13;4.85;;;20.10;98.00;;;;;;4894722;29;20366;-87
2022/05/14 12:52:21;;;;;;;14.40;4.47;;;20.00;98.00;;;;;;4878272;29;20434;-87
2022/05/14 12:54:59;;;;;;;17.60;5.07;;;20.00;97.40;;;;;;4894255;29;20438;-87
2022/05/14 12:57:27;;;;;;;14.13;4.70;;;19.90;97.20;;;;;;4877961;29;20041;-87
2022/05/14 12:59:53;;;;;;;17.60;5.82;;;19.90;96.90;;;;;;4877968;29;20040;-87
2022/05/14 13:02:36;;;;;;;18.00;5.35;;;20.00;97.00;;;;;;4862308;29;20513;-87
2022/05/14 13:05:18;;;;;;;15.27;4.45;;;20.00;97.00;;;;;;4878473;29;20041;-86
2022/05/14 13:07:44;;;;;;;15.32;4.80;;;20.10;94.80;;;;;;4877854;29;20040;-87
2022/05/14 13:10:09;;;;;;;19.77;5.35;;;20.30;96.40;;;;;;4877793;29;20060;-86